createdAt,value
2023-04-01T00:01:19.186Z,100170.27
2023-04-01T00:03:47.657Z,100161.98
2023-04-01T00:06:18.613Z,100158.17
2023-04-01T00:08:47.839Z,100152.14
2023-04-01T00:11:17.003Z,100153.68
2023-04-01T00:13:45.606Z,100152.63
2023-04-01T00:16:21.822Z,100153.14
2023-04-01T00:18:52.353Z,100147.24
2023-04-01T00:21:22.251Z,100142.39
2023-04-01T00:23:53.701Z,100141.02
2023-04-01T00:26:23.191Z,100144.10
2023-04-01T00:28:52.214Z,100142.20
2023-04-01T00:31:21.810Z,100136.49
2023-04-01T00:33:50.878Z,100135.26
2023-04-01T00:36:22.960Z,100132.83
2023-04-01T00:38:52.915Z,100133.33
2023-04-01T00:41:22.639Z,100133.30
2023-04-01T00:43:53.684Z,100134.30
2023-04-01T00:46:22.047Z,100133.92
2023-04-01T00:48:54.500Z,100132.49
2023-04-01T00:51:30.367Z,100129.85
2023-04-01T00:54:02.944Z,100120.65
2023-04-01T00:56:49.963Z,100118.37
2023-04-01T00:59:26.260Z,100116.25
2023-04-01T01:01:55.033Z,100105.01
2023-04-01T01:04:29.399Z,100104.63
2023-04-01T01:07:21.091Z,100101.48
2023-04-01T01:10:11.020Z,100104.04
2023-04-01T01:13:12.371Z,100107.13
2023-04-01T01:15:58.591Z,100109.00
2023-04-01T01:18:38.957Z,100104.34
2023-04-01T01:21:22.582Z,100098.30
2023-04-01T01:24:08.896Z,100094.30
2023-04-01T01:27:03.240Z,100089.79
2023-04-01T01:29:56.512Z,100086.83
2023-04-01T01:32:56.868Z,100083.90
2023-04-01T01:35:51.202Z,100076.13
2023-04-01T01:38:25.318Z,100082.98
2023-04-01T01:41:03.441Z,100083.83
2023-04-01T01:43:36.553Z,100085.21
2023-04-01T01:46:12.789Z,100083.14
2023-04-01T01:48:44.030Z,100084.15
2023-04-01T01:51:13.119Z,100083.77
2023-04-01T01:53:42.096Z,100083.05
2023-04-01T01:56:15.084Z,100080.11
2023-04-01T01:58:48.830Z,100067.70
2023-04-01T02:01:25.859Z,100068.35
2023-04-01T02:03:56.967Z,100066.77
2023-04-01T02:06:29.531Z,100066.23
2023-04-01T02:09:04.306Z,100064.48
2023-04-01T02:11:45.279Z,100063.79
2023-04-01T02:14:27.604Z,100063.80
2023-04-01T02:17:07.834Z,100061.92
2023-04-01T02:19:46.250Z,100059.71
2023-04-01T02:22:20.505Z,100051.83
2023-04-01T02:24:51.975Z,100044.27
2023-04-01T02:27:21.781Z,100044.63
2023-04-01T02:29:51.716Z,100040.86
2023-04-01T02:32:21.768Z,100045.36
2023-04-01T02:34:51.732Z,100043.63
2023-04-01T02:37:20.724Z,100043.11
2023-04-01T02:39:50.324Z,100040.16
2023-04-01T02:42:20.210Z,100038.44
2023-04-01T02:44:49.173Z,100038.44
2023-04-01T02:47:18.273Z,100034.14
2023-04-01T02:49:46.699Z,100031.92
2023-04-01T02:52:15.166Z,100025.05
2023-04-01T02:54:43.762Z,100022.81
2023-04-01T02:57:12.150Z,100017.81
2023-04-01T02:59:40.664Z,100011.43
2023-04-01T07:36:08.361Z,99877.13
2023-04-01T07:38:48.521Z,99874.95
2023-04-01T07:41:36.214Z,99867.33
2023-04-01T07:44:31.167Z,99871.88
2023-04-01T07:47:30.882Z,99870.00
2023-04-01T07:50:27.172Z,99870.31
2023-04-01T07:52:54.383Z,99865.23
2023-04-01T07:55:24.491Z,99861.58
2023-04-01T07:58:08.736Z,99867.66
2023-04-01T08:01:03.707Z,99872.02
2023-04-01T08:03:59.466Z,99869.38
2023-04-01T08:06:54.461Z,99864.70
2023-04-01T08:09:39.638Z,99856.94
2023-04-01T08:12:45.916Z,99854.36
2023-04-01T08:15:57.585Z,99856.17
2023-04-01T08:18:50.347Z,99858.75
2023-04-01T08:21:36.142Z,99853.86
2023-04-01T08:24:19.268Z,99849.52
2023-04-01T08:26:54.140Z,99843.96
2023-04-01T08:29:26.526Z,99837.51
2023-04-01T08:32:13.917Z,99835.55
2023-04-01T08:34:46.269Z,99834.16
2023-04-01T08:37:33.656Z,99838.77
2023-04-01T08:40:28.313Z,99837.08
2023-04-01T08:43:25.757Z,99834.63
2023-04-01T08:49:56.549Z,99836.27
2023-04-01T08:52:51.548Z,99834.76
2023-04-01T08:55:39.609Z,99834.52
2023-04-01T08:58:40.618Z,99832.25
2023-04-01T09:01:21.595Z,99830.10
2023-04-01T09:04:26.243Z,99825.68
2023-04-01T09:07:28.651Z,99827.49
2023-04-01T09:10:14.462Z,99822.35
2023-04-01T09:13:21.424Z,99818.07
2023-04-01T09:16:23.749Z,99820.89
2023-04-01T09:19:12.558Z,99823.34
2023-04-01T09:22:14.815Z,99827.58
2023-04-01T09:28:52.971Z,99824.64
2023-04-01T09:32:02.897Z,99823.61
2023-04-01T09:35:22.920Z,99820.29
2023-04-01T09:38:09.919Z,99818.60
2023-04-01T09:40:55.209Z,99817.16
2023-04-01T09:44:02.782Z,99817.64
2023-04-01T09:46:59.241Z,99820.09
2023-04-01T09:49:31.149Z,99815.55
2023-04-01T09:52:10.846Z,99815.02
2023-04-01T09:55:00.712Z,99803.65
2023-04-01T09:57:46.193Z,99801.27
2023-04-01T10:00:51.533Z,99797.09
2023-04-01T10:03:56.160Z,99786.88
2023-04-01T10:06:59.056Z,99784.02
2023-04-01T10:10:05.684Z,99785.77
2023-04-01T10:12:39.957Z,99787.02
2023-04-01T10:15:20.812Z,99791.88
2023-04-01T10:18:26.920Z,99791.84
2023-04-01T10:21:24.634Z,99794.96
2023-04-01T10:23:53.062Z,99795.33
2023-04-01T10:26:45.330Z,99792.49
2023-04-01T10:30:07.091Z,99792.30
2023-04-01T10:33:08.377Z,99786.67
2023-04-01T10:35:52.138Z,99786.05
2023-04-01T10:38:29.403Z,99783.52
2023-04-01T10:41:19.730Z,99785.68
2023-04-01T10:44:29.107Z,99784.36
2023-04-01T10:47:14.062Z,99784.45
2023-04-01T10:50:11.156Z,99780.97
2023-04-01T10:53:16.079Z,99778.46
2023-04-01T10:56:31.328Z,99768.20
2023-04-01T10:59:34.134Z,99767.11
2023-04-01T11:02:40.111Z,99764.30
2023-04-01T11:05:42.389Z,99763.98
2023-04-01T11:08:39.984Z,99767.16
2023-04-01T11:11:26.800Z,99765.58
2023-04-01T11:14:13.401Z,99755.22
2023-04-01T11:17:01.048Z,99748.72
2023-04-01T11:19:51.246Z,99743.56
2023-04-01T11:22:25.960Z,99750.17
2023-04-01T11:25:10.583Z,99744.06
2023-04-01T11:28:03.872Z,99732.83
2023-04-01T11:31:01.905Z,99726.77
2023-04-01T11:33:40.027Z,99724.90
2023-04-01T11:36:20.594Z,99720.65
2023-04-01T11:39:11.696Z,99721.54
2023-04-01T11:42:45.287Z,99718.34
2023-04-01T11:45:47.678Z,99710.11
2023-04-01T11:48:38.005Z,99709.99
2023-04-01T11:51:35.692Z,99708.60
2023-04-01T11:54:44.266Z,99710.13
2023-04-01T11:57:30.721Z,99713.27
2023-04-01T12:00:19.767Z,99713.11
2023-04-01T12:03:25.861Z,99719.58
2023-04-01T12:06:04.761Z,99712.96
2023-04-01T12:08:34.215Z,99708.88
2023-04-01T12:11:40.672Z,99709.13
2023-04-01T12:14:37.843Z,99706.11
2023-04-01T12:17:40.428Z,99704.25
2023-04-01T12:20:27.074Z,99706.77
2023-04-01T12:23:33.647Z,99700.52
2023-04-01T12:26:28.462Z,99693.61
2023-04-01T12:29:06.049Z,99687.95
2023-04-01T12:31:57.243Z,99693.20
2023-04-01T12:34:34.767Z,99700.86
2023-04-01T12:37:21.972Z,99701.17
2023-04-01T12:39:59.797Z,99702.09
2023-04-01T12:42:45.881Z,99698.95
2023-04-01T12:45:23.456Z,99699.89
2023-04-01T12:48:37.001Z,99699.23
2023-04-01T12:51:11.378Z,99694.70
2023-04-01T12:54:16.865Z,99697.02
2023-04-01T12:57:03.259Z,99696.21
2023-04-01T12:59:53.811Z,99692.54
2023-04-01T13:02:31.303Z,99689.66
2023-04-01T13:05:17.878Z,99685.30
2023-04-01T13:08:07.236Z,99683.16
2023-04-01T13:10:59.477Z,99679.34
2023-04-01T13:13:46.545Z,99677.06
2023-04-01T13:16:40.068Z,99672.53
2023-04-01T13:20:01.809Z,99668.45
2023-04-01T13:22:54.234Z,99660.54
2023-04-01T13:25:29.204Z,99661.94
2023-04-01T13:28:28.824Z,99664.65
2023-04-01T13:31:07.670Z,99666.89
2023-04-01T13:33:38.872Z,99668.69
2023-04-01T13:36:25.191Z,99670.38
2023-04-01T13:39:21.777Z,99673.61
2023-04-01T13:46:08.411Z,99672.08
2023-04-01T13:49:00.161Z,99664.61
2023-04-01T13:52:00.164Z,99664.05
2023-04-01T13:54:43.820Z,99661.88
2023-04-01T13:57:49.493Z,99661.50
2023-04-01T14:00:48.383Z,99661.34
2023-04-01T14:03:31.535Z,99660.91
2023-04-01T14:06:44.884Z,99661.85
2023-04-01T14:09:22.100Z,99662.68
2023-04-01T14:11:56.543Z,99664.45
2023-04-01T14:14:31.072Z,99664.38
2023-04-01T14:17:28.642Z,99661.70
2023-04-01T14:20:26.994Z,99660.29
2023-04-01T14:23:29.272Z,99655.86
2023-04-01T14:26:12.723Z,99654.55
2023-04-01T14:29:08.752Z,99653.13
2023-04-01T14:31:53.210Z,99657.18
2023-04-01T14:34:59.453Z,99651.96
2023-04-01T14:38:00.370Z,99646.75
2023-04-01T14:40:54.325Z,99648.77
2023-04-01T14:43:45.709Z,99646.73
2023-04-01T14:46:34.442Z,99646.69
2023-04-01T14:49:40.635Z,99646.69
2023-04-01T14:52:37.117Z,99647.09
2023-04-01T14:55:35.937Z,99643.02
2023-04-01T14:58:18.513Z,99643.53
2023-04-01T15:01:05.958Z,99646.27
2023-04-01T15:03:49.124Z,99641.66
2023-04-01T15:06:45.108Z,99643.23
2023-04-01T15:09:40.063Z,99639.63
2023-04-01T15:12:30.490Z,99645.83
2023-04-01T15:15:31.172Z,99643.11
2023-04-01T15:18:20.267Z,99644.83
2023-04-01T15:21:20.108Z,99642.50
2023-04-01T15:24:12.845Z,99643.63
2023-04-01T15:27:03.120Z,99642.27
2023-04-01T15:30:13.168Z,99645.23
2023-04-01T15:33:09.201Z,99649.45
2023-04-01T15:35:46.808Z,99646.44
2023-04-01T15:38:49.363Z,99650.59
2023-04-01T15:41:37.207Z,99647.58
2023-04-01T15:44:25.562Z,99654.52
2023-04-01T15:46:53.952Z,99657.44
2023-04-01T15:50:01.370Z,99654.46
2023-04-01T15:52:51.451Z,99656.17
2023-04-01T15:55:22.369Z,99659.52
2023-04-01T15:58:03.201Z,99657.75
2023-04-01T16:00:43.312Z,99656.77
2023-04-01T16:03:49.707Z,99658.08
2023-04-01T16:06:28.695Z,99655.84
2023-04-01T16:09:22.289Z,99660.85
2023-04-01T16:12:19.300Z,99664.59
2023-04-01T16:15:01.446Z,99671.02
2023-04-01T16:17:43.188Z,99671.52
2023-04-01T16:20:45.766Z,99673.54
2023-04-01T16:23:27.924Z,99677.90
2023-04-01T16:26:19.930Z,99676.64
2023-04-01T16:28:56.414Z,99677.34
2023-04-01T16:31:27.783Z,99676.55
2023-04-01T16:34:05.756Z,99676.20
2023-04-01T16:36:51.583Z,99676.71
2023-04-01T16:39:47.675Z,99683.20
2023-04-01T16:42:44.132Z,99685.31
2023-04-01T16:45:45.498Z,99691.59
2023-04-01T16:48:54.072Z,99693.10
2023-04-01T16:51:46.240Z,99695.11
2023-04-01T16:54:36.402Z,99698.52
2023-04-01T16:57:05.222Z,99700.41
2023-04-01T16:59:56.469Z,99701.98
2023-04-01T17:02:31.633Z,99702.72
2023-04-01T17:05:09.656Z,99706.65
2023-04-01T17:08:12.371Z,99709.36
2023-04-01T17:10:54.666Z,99710.70
2023-04-01T17:13:51.694Z,99716.27
2023-04-01T17:16:20.964Z,99711.14
2023-04-01T17:19:01.898Z,99719.49
2023-04-01T17:22:03.046Z,99723.45
2023-04-01T17:25:19.312Z,99723.80
2023-04-01T17:28:00.343Z,99723.95
2023-04-01T17:30:47.285Z,99728.98
2023-04-01T17:34:03.739Z,99731.48
2023-04-01T17:36:41.400Z,99733.73
2023-04-01T17:39:29.993Z,99734.95
2023-04-01T17:42:06.702Z,99737.58
2023-04-01T17:44:56.166Z,99734.74
2023-04-01T17:47:30.983Z,99736.28
2023-04-01T17:50:11.784Z,99738.92
2023-04-01T17:53:00.917Z,99738.01
2023-04-01T17:56:02.025Z,99737.65
2023-04-01T17:58:48.111Z,99742.38
2023-04-01T18:01:38.362Z,99743.96
2023-04-01T18:04:48.666Z,99745.20
2023-04-01T18:07:26.357Z,99747.05
2023-04-01T18:10:05.974Z,99746.20
2023-04-01T18:12:47.105Z,99748.02
2023-04-01T18:15:34.484Z,99746.15
2023-04-01T18:18:20.393Z,99743.40
2023-04-01T18:21:08.383Z,99742.52
2023-04-01T18:24:04.015Z,99743.95
2023-04-01T18:26:39.867Z,99746.30
2023-04-01T18:29:19.247Z,99745.59
2023-04-01T18:31:56.542Z,99747.20
2023-04-01T18:34:53.658Z,99748.86
2023-04-01T18:37:32.915Z,99748.34
2023-04-01T18:40:37.734Z,99748.40
2023-04-01T18:43:41.297Z,99749.72
2023-04-01T18:46:40.717Z,99746.93
2023-04-01T18:49:30.779Z,99749.67
2023-04-01T18:52:09.800Z,99750.03
2023-04-01T18:54:54.475Z,99750.32
2023-04-01T18:57:24.697Z,99748.17
2023-04-01T19:00:09.792Z,99751.44
2023-04-01T19:02:38.219Z,99752.34
2023-04-01T19:05:19.582Z,99751.44
2023-04-01T19:07:54.620Z,99749.60
2023-04-01T19:10:32.500Z,99752.06
2023-04-01T19:13:19.809Z,99756.60
2023-04-01T19:15:52.357Z,99758.44
2023-04-01T19:18:51.851Z,99758.04
2023-04-01T19:21:28.199Z,99760.92
2023-04-01T19:24:24.053Z,99767.48
2023-04-01T19:27:04.207Z,99764.42
2023-04-01T19:29:44.680Z,99769.14
2023-04-01T19:32:42.442Z,99771.58
2023-04-01T19:35:24.590Z,99774.39
2023-04-01T19:38:03.118Z,99773.81
2023-04-01T19:40:53.549Z,99776.48
2023-04-01T19:43:53.098Z,99776.05
2023-04-01T19:46:26.388Z,99782.13
2023-04-01T19:49:13.984Z,99783.52
2023-04-01T19:51:55.870Z,99782.53
2023-04-01T19:54:33.387Z,99790.46
2023-04-01T19:57:07.884Z,99791.20
2023-04-01T19:59:43.584Z,99792.13
2023-04-01T20:02:42.951Z,99793.10
2023-04-01T20:05:44.049Z,99794.48
2023-04-01T20:08:12.725Z,99796.73
2023-04-01T20:10:53.363Z,99798.00
2023-04-01T20:14:00.861Z,99798.51
2023-04-01T20:17:00.021Z,99806.11
2023-04-01T20:19:50.042Z,99809.27
2023-04-01T20:22:29.630Z,99810.80
2023-04-01T20:25:14.020Z,99811.64
2023-04-01T20:27:53.214Z,99812.70
2023-04-01T20:30:59.430Z,99812.54
2023-04-01T20:33:58.908Z,99810.42
2023-04-01T20:36:39.361Z,99803.46
2023-04-01T20:39:22.930Z,99801.95
2023-04-01T20:42:28.027Z,99801.99
2023-04-01T20:45:00.622Z,99798.23
2023-04-01T20:47:29.119Z,99795.30
2023-04-01T20:50:25.815Z,99798.08
2023-04-01T20:53:05.732Z,99797.96
2023-04-01T20:56:08.547Z,99796.44
2023-04-01T20:58:47.912Z,99795.27
2023-04-01T21:01:53.750Z,99799.86
2023-04-01T21:05:03.819Z,99800.83
2023-04-01T21:07:44.256Z,99800.17
2023-04-01T21:10:42.092Z,99801.42
2023-04-01T21:13:29.013Z,99802.97
2023-04-01T21:16:21.198Z,99806.13
2023-04-01T21:18:50.036Z,99809.21
2023-04-01T21:21:35.060Z,99809.02
2023-04-01T21:25:04.139Z,99810.09
2023-04-01T21:27:48.036Z,99810.20
2023-04-01T21:30:41.637Z,99810.36
2023-04-01T21:33:27.956Z,99804.46
2023-04-01T21:36:05.545Z,99804.93
2023-04-01T21:38:42.910Z,99808.91
2023-04-01T21:41:21.344Z,99810.79
2023-04-01T21:44:19.902Z,99814.30
2023-04-01T21:50:41.190Z,99827.31
2023-04-01T21:53:47.221Z,99828.56
2023-04-01T21:56:15.709Z,99823.71
2023-04-01T21:59:21.579Z,99815.86
2023-04-01T22:02:08.113Z,99810.48
2023-04-01T22:04:45.330Z,99804.98
2023-04-01T22:07:25.632Z,99808.79
2023-04-01T22:10:12.133Z,99803.95
2023-04-01T22:12:51.655Z,99801.06
2023-04-01T22:16:02.358Z,99800.63
2023-04-01T22:19:04.942Z,99804.16
2023-04-01T22:22:02.598Z,99803.34
2023-04-01T22:24:40.502Z,99800.79
2023-04-01T22:27:22.548Z,99798.55
2023-04-01T22:29:53.870Z,99796.98
2023-04-01T22:32:29.563Z,99792.90
2023-04-01T22:35:12.602Z,99788.39
2023-04-01T22:38:00.173Z,99786.12
2023-04-01T22:40:57.101Z,99780.25
2023-04-01T22:43:40.786Z,99775.59
2023-04-01T22:46:18.226Z,99773.20
2023-04-01T22:48:49.158Z,99772.08
2023-04-01T22:51:25.564Z,99766.95
2023-04-01T22:54:03.532Z,99766.36
2023-04-01T22:56:38.917Z,99762.89
2023-04-01T22:59:21.885Z,99762.79
2023-04-01T23:02:08.325Z,99763.18
2023-04-01T23:04:44.681Z,99771.37
2023-04-01T23:07:48.015Z,99774.84
2023-04-01T23:10:39.293Z,99778.50
2023-04-01T23:13:15.113Z,99779.48
2023-04-01T23:15:46.163Z,99773.99
2023-04-01T23:18:36.134Z,99771.84
2023-04-01T23:21:07.422Z,99765.39
2023-04-01T23:23:50.902Z,99768.39
2023-04-01T23:26:38.336Z,99763.34
2023-04-01T23:29:16.362Z,99765.73
2023-04-01T23:31:49.411Z,99767.16
2023-04-01T23:34:25.556Z,99767.17
2023-04-01T23:37:00.296Z,99769.08
2023-04-01T23:39:35.786Z,99768.75
2023-04-01T23:42:14.597Z,99767.55
2023-04-01T23:44:44.967Z,99767.88
2023-04-01T23:47:19.075Z,99772.63
2023-04-01T23:49:56.470Z,99773.36
2023-04-01T23:52:27.683Z,99778.82
2023-04-01T23:55:04.685Z,99783.33
2023-04-01T23:57:37.865Z,99783.46
